createdAt,value
2022-12-23T00:01:46.274Z,4.17
2022-12-23T00:04:13.061Z,5.93
2022-12-23T00:06:39.734Z,8.40
2022-12-23T00:09:06.444Z,7.23
2022-12-23T00:11:33.095Z,8.17
2022-12-23T00:14:21.461Z,5.63
2022-12-23T00:16:50.551Z,7.63
2022-12-23T00:19:17.487Z,5.13
2022-12-23T00:21:44.166Z,5.73
2022-12-23T00:24:12.065Z,4.47
2022-12-23T00:26:38.844Z,5.13
2022-12-23T00:29:05.642Z,5.20
2022-12-23T00:31:32.378Z,8.73
2022-12-23T00:33:59.137Z,5.07
2022-12-23T00:36:30.750Z,5.30
2022-12-23T00:39:18.457Z,5.70
2022-12-23T00:42:03.683Z,5.03
2022-12-23T00:44:30.381Z,9.03
2022-12-23T00:46:57.327Z,6.03
2022-12-23T00:49:42.217Z,5.13
2022-12-23T00:52:11.582Z,6.83
2022-12-23T00:54:38.707Z,3.73
2022-12-23T00:57:05.677Z,3.70
2022-12-23T00:59:34.613Z,5.33
2022-12-23T01:02:24.122Z,6.13
2022-12-23T01:05:12.741Z,5.03
2022-12-23T01:07:40.767Z,4.70
2022-12-23T01:10:09.581Z,6.27
2022-12-23T01:12:39.568Z,3.97
2022-12-23T01:15:07.002Z,5.40
2022-12-23T01:17:33.654Z,5.50
2022-12-23T01:20:00.337Z,3.77
2022-12-23T01:22:26.935Z,4.50
2022-12-23T01:24:53.620Z,4.97
2022-12-23T01:27:20.249Z,4.57
2022-12-23T01:29:46.878Z,3.43
2022-12-23T01:32:14.165Z,4.97
2022-12-23T01:34:41.096Z,2.60
2022-12-23T01:37:07.679Z,3.83
2022-12-23T01:39:34.402Z,5.23
2022-12-23T01:42:19.653Z,3.30
2022-12-23T01:44:59.192Z,3.13
2022-12-23T01:47:37.698Z,4.40
2022-12-23T01:50:12.826Z,5.20
2022-12-23T01:52:45.536Z,4.70
2022-12-23T01:55:14.416Z,5.60
2022-12-23T01:57:43.060Z,3.00
2022-12-23T02:00:30.107Z,6.60
2022-12-23T02:03:15.712Z,2.80
2022-12-23T02:05:45.394Z,3.90
2022-12-23T02:08:33.613Z,6.87
2022-12-23T02:11:16.968Z,3.60
2022-12-23T02:14:20.599Z,2.77
2022-12-23T02:16:55.748Z,3.90
2022-12-23T02:19:56.855Z,2.00
2022-12-23T02:22:51.419Z,3.67
2022-12-23T02:25:39.812Z,1.60
2022-12-23T02:28:30.179Z,5.10
2022-12-23T02:31:20.755Z,4.50
2022-12-23T02:34:00.499Z,2.13
2022-12-23T02:36:45.895Z,3.07
2022-12-23T02:39:27.097Z,4.03
2022-12-23T02:42:02.262Z,2.20
2022-12-23T02:44:35.228Z,2.10
2022-12-23T02:47:11.192Z,4.40
2022-12-23T02:49:45.273Z,2.30
2022-12-23T02:52:15.308Z,3.90
2022-12-23T02:54:48.638Z,3.20
2022-12-23T02:57:19.936Z,3.40
2022-12-23T02:59:51.040Z,4.43
2022-12-23T03:02:19.086Z,5.40
2022-12-23T03:04:45.878Z,4.53
2022-12-23T03:07:20.529Z,5.10
2022-12-23T03:10:11.911Z,6.27
2022-12-23T03:12:58.004Z,4.73
2022-12-23T03:15:33.273Z,8.07
2022-12-23T03:18:11.851Z,8.53
2022-12-23T03:20:50.422Z,4.30
2022-12-23T03:23:24.165Z,5.50
2022-12-23T03:26:02.524Z,2.60
2022-12-23T03:28:35.585Z,3.10
2022-12-23T03:31:07.654Z,3.47
2022-12-23T03:33:38.379Z,5.40
2022-12-23T03:36:18.149Z,2.77
2022-12-23T03:38:45.295Z,2.83
2022-12-23T03:41:18.367Z,2.93
2022-12-23T03:43:54.734Z,2.93
2022-12-23T03:46:34.163Z,4.10
2022-12-23T03:49:10.004Z,4.30
2022-12-23T03:51:52.820Z,5.77
2022-12-23T03:54:26.813Z,2.77
2022-12-23T03:57:01.970Z,3.70
2022-12-23T03:59:34.210Z,2.83
2022-12-23T04:02:11.151Z,2.60
2022-12-23T04:04:56.716Z,1.67
2022-12-23T04:07:45.164Z,1.33
2022-12-23T04:10:14.047Z,1.50
2022-12-23T04:12:40.974Z,2.07
2022-12-23T04:15:12.800Z,3.17
2022-12-23T04:17:40.170Z,2.73
2022-12-23T04:20:07.725Z,1.40
2022-12-23T04:22:34.371Z,1.80
2022-12-23T04:25:01.011Z,1.77
2022-12-23T04:27:27.684Z,1.37
2022-12-23T04:29:54.350Z,2.10
2022-12-23T04:32:20.975Z,1.57
2022-12-23T04:34:49.793Z,2.20
2022-12-23T04:37:16.402Z,2.53
2022-12-23T04:39:42.965Z,2.07
2022-12-23T04:42:09.646Z,1.97
2022-12-23T04:44:36.374Z,1.30
2022-12-23T04:47:03.177Z,2.23
2022-12-23T04:49:30.735Z,2.17
2022-12-23T04:51:57.672Z,1.60
2022-12-23T04:54:24.407Z,1.57
2022-12-23T04:56:51.153Z,1.77
2022-12-23T04:59:17.851Z,2.23
2022-12-23T05:01:44.682Z,2.13
2022-12-23T05:04:11.541Z,3.77
2022-12-23T05:06:38.257Z,1.37
2022-12-23T05:09:05.565Z,2.53
2022-12-23T05:11:35.926Z,1.80
2022-12-23T05:14:05.210Z,2.10
2022-12-23T05:16:33.867Z,1.37
2022-12-23T05:19:00.655Z,1.30
2022-12-23T05:21:27.333Z,1.30
2022-12-23T05:23:53.921Z,5.63
2022-12-23T05:26:20.660Z,2.37
2022-12-23T05:28:47.394Z,2.60
2022-12-23T05:31:15.059Z,2.10
2022-12-23T05:33:41.936Z,2.03
2022-12-23T05:36:10.890Z,1.50
2022-12-23T05:38:37.526Z,1.40
2022-12-23T05:41:04.853Z,2.80
2022-12-23T05:43:31.685Z,1.50
2022-12-23T05:45:58.400Z,2.17
2022-12-23T05:48:25.093Z,1.50
2022-12-23T05:50:53.110Z,1.37
2022-12-23T05:53:20.702Z,1.47
2022-12-23T05:55:47.656Z,2.13
2022-12-23T05:58:14.497Z,5.03
2022-12-23T06:00:41.193Z,1.07
2022-12-23T06:03:08.003Z,1.00
2022-12-23T06:05:37.666Z,1.87
2022-12-23T06:08:04.641Z,3.10
2022-12-23T06:10:31.348Z,1.40
2022-12-23T06:12:57.967Z,2.67
2022-12-23T06:15:24.645Z,2.27
2022-12-23T06:17:51.549Z,1.90
2022-12-23T06:20:20.648Z,1.40
2022-12-23T06:22:47.769Z,1.47
2022-12-23T06:25:14.418Z,4.33
2022-12-23T06:27:41.023Z,1.10
2022-12-23T06:30:08.302Z,2.97
2022-12-23T06:32:38.626Z,1.37
2022-12-23T06:35:07.247Z,1.40
2022-12-23T06:37:34.107Z,3.53
2022-12-23T06:40:00.776Z,1.73
2022-12-23T06:42:27.415Z,2.30
2022-12-23T06:44:54.052Z,2.37
2022-12-23T06:47:20.683Z,4.03
2022-12-23T06:49:47.337Z,3.17
2022-12-23T06:52:13.981Z,1.60
2022-12-23T06:54:40.642Z,2.33
2022-12-23T06:57:07.342Z,1.93
2022-12-23T06:59:33.935Z,3.80
2022-12-23T07:02:00.815Z,2.83
2022-12-23T07:04:27.671Z,2.27
2022-12-23T07:06:54.405Z,2.70
2022-12-23T07:09:21.033Z,2.10
2022-12-23T07:11:47.681Z,2.60
2022-12-23T07:14:14.246Z,2.03
2022-12-23T07:16:40.929Z,1.63
2022-12-23T07:19:07.936Z,2.33
2022-12-23T07:21:34.689Z,4.33
2022-12-23T07:24:01.322Z,1.90
2022-12-23T07:26:28.158Z,1.73
2022-12-23T07:28:54.779Z,1.67
2022-12-23T07:31:22.407Z,2.13
2022-12-23T07:33:49.079Z,1.93
2022-12-23T07:36:15.753Z,1.67
2022-12-23T07:38:42.393Z,1.90
2022-12-23T07:41:09.017Z,1.70
2022-12-23T07:43:35.588Z,1.77
2022-12-23T07:46:09.685Z,3.10
2022-12-23T07:48:36.609Z,2.40
2022-12-23T07:51:04.003Z,2.53
2022-12-23T07:53:31.135Z,3.57
2022-12-23T07:55:59.077Z,1.93
2022-12-23T07:58:26.121Z,2.70
2022-12-23T08:01:10.139Z,2.27
2022-12-23T08:03:37.056Z,2.47
2022-12-23T08:06:15.250Z,4.03
2022-12-23T08:08:44.575Z,1.93
2022-12-23T08:11:15.035Z,2.67
2022-12-23T08:13:43.523Z,2.63
2022-12-23T08:16:11.570Z,4.00
2022-12-23T08:18:40.089Z,2.40
2022-12-23T08:21:15.419Z,2.03
2022-12-23T08:23:43.708Z,1.87
2022-12-23T08:26:11.988Z,4.53
2022-12-23T08:28:39.832Z,3.10
2022-12-23T08:31:09.066Z,2.50
2022-12-23T08:33:38.079Z,2.00
2022-12-23T08:36:08.417Z,2.47
2022-12-23T08:38:35.842Z,2.47
2022-12-23T08:41:02.492Z,5.23
2022-12-23T08:43:35.533Z,2.20
2022-12-23T08:46:03.251Z,2.53
2022-12-23T08:48:30.029Z,2.50
2022-12-23T08:50:56.691Z,2.10
2022-12-23T08:53:23.330Z,2.27
2022-12-23T08:55:49.998Z,1.80
2022-12-23T08:58:16.691Z,2.23
2022-12-23T09:00:43.392Z,1.73
2022-12-23T09:03:10.274Z,1.90
2022-12-23T09:05:41.930Z,3.00
2022-12-23T09:08:09.405Z,4.93
2022-12-23T09:10:41.723Z,3.73
2022-12-23T09:13:10.651Z,2.40
2022-12-23T09:15:42.540Z,1.80
2022-12-23T09:18:10.046Z,2.23
2022-12-23T09:20:37.527Z,1.97
2022-12-23T09:23:05.768Z,1.53
2022-12-23T09:25:33.388Z,3.57
2022-12-23T09:28:00.028Z,3.53
2022-12-23T09:30:26.872Z,2.40
2022-12-23T09:32:53.646Z,1.90
2022-12-23T09:35:20.459Z,1.83
2022-12-23T09:37:47.519Z,3.17
2022-12-23T09:40:16.213Z,1.70
2022-12-23T09:43:13.230Z,3.20
2022-12-23T09:45:45.756Z,2.97
2022-12-23T09:48:17.354Z,2.10
2022-12-23T09:50:45.542Z,2.03
2022-12-23T09:53:19.480Z,4.47
2022-12-23T09:55:57.430Z,3.00
2022-12-23T09:58:45.935Z,1.63
2022-12-23T10:01:47.428Z,2.30
2022-12-23T10:04:23.493Z,2.27
2022-12-23T10:07:22.023Z,2.10
2022-12-23T10:09:51.488Z,2.90
2022-12-23T10:12:30.719Z,2.70
2022-12-23T10:15:02.485Z,7.57
2022-12-23T10:17:41.732Z,4.23
2022-12-23T10:20:18.380Z,4.23
2022-12-23T10:22:47.087Z,6.03
2022-12-23T10:25:37.287Z,4.70
2022-12-23T10:28:04.756Z,4.33
2022-12-23T10:30:57.317Z,3.47
2022-12-23T10:33:36.014Z,5.80
2022-12-23T10:36:19.604Z,3.63
2022-12-23T10:39:08.077Z,3.10
2022-12-23T10:41:59.861Z,5.03
2022-12-23T10:44:45.784Z,4.73
2022-12-23T10:47:44.147Z,10.37
2022-12-23T10:50:46.233Z,30.07
2022-12-23T10:53:37.370Z,5.73
2022-12-23T10:56:07.395Z,5.10
2022-12-23T10:58:41.001Z,4.93
2022-12-23T11:01:22.109Z,5.50
2022-12-23T11:04:10.343Z,3.60
2022-12-23T11:06:55.828Z,3.40
2022-12-23T11:10:01.365Z,4.40
2022-12-23T11:12:49.433Z,37.97
2022-12-23T11:15:41.851Z,30.03
2022-12-23T11:18:13.378Z,26.70
2022-12-23T11:20:44.369Z,4.70
2022-12-23T11:23:32.927Z,3.73
2022-12-23T11:26:03.061Z,4.07
2022-12-23T11:28:31.441Z,2.87
2022-12-23T11:31:08.068Z,3.23
2022-12-23T11:33:59.875Z,2.73
2022-12-23T11:36:28.923Z,3.37
2022-12-23T11:39:06.932Z,2.37
2022-12-23T11:41:47.838Z,3.77
2022-12-23T11:44:31.973Z,2.93
2022-12-23T11:47:25.211Z,3.67
2022-12-23T11:50:00.136Z,3.03
2022-12-23T11:52:29.926Z,3.47
2022-12-23T11:54:59.354Z,3.27
2022-12-23T11:57:39.813Z,2.40
2022-12-23T12:00:18.703Z,2.83
2022-12-23T12:02:47.588Z,3.50
2022-12-23T12:05:36.346Z,2.60
2022-12-23T12:08:11.697Z,5.93
2022-12-23T12:10:40.346Z,2.30
2022-12-23T12:13:21.684Z,4.60
2022-12-23T12:16:27.665Z,4.97
2022-12-23T12:18:58.064Z,4.50
2022-12-23T12:21:30.658Z,2.83
2022-12-23T12:24:18.429Z,7.63
2022-12-23T12:26:51.573Z,4.57
2022-12-23T12:29:43.647Z,6.50
2022-12-23T12:32:25.074Z,4.40
2022-12-23T12:34:58.808Z,3.60
2022-12-23T12:38:04.376Z,6.73
2022-12-23T12:40:41.167Z,3.17
2022-12-23T12:43:28.099Z,4.70
2022-12-23T12:46:16.322Z,5.00
2022-12-23T12:48:55.154Z,5.43
2022-12-23T12:51:53.184Z,4.30
2022-12-23T12:54:25.092Z,3.60
2022-12-23T12:56:57.005Z,3.63
2022-12-23T12:59:34.562Z,5.17
2022-12-23T13:02:17.052Z,3.70
2022-12-23T13:05:15.586Z,3.77
2022-12-23T13:08:10.486Z,4.23
2022-12-23T13:10:59.915Z,3.47
2022-12-23T13:13:32.575Z,6.63
2022-12-23T13:16:38.857Z,4.27
2022-12-23T13:19:20.644Z,5.13
2022-12-23T13:22:00.932Z,4.03
2022-12-23T13:24:46.043Z,2.57
2022-12-23T13:27:27.145Z,3.17
2022-12-23T13:29:58.762Z,3.63
2022-12-23T13:32:44.540Z,3.63
2022-12-23T13:35:32.105Z,4.13
2022-12-23T13:38:17.404Z,4.03
2022-12-23T13:40:53.598Z,3.83
2022-12-23T13:43:23.843Z,4.57
2022-12-23T13:45:54.824Z,5.10
2022-12-23T13:48:39.557Z,3.13
2022-12-23T13:51:21.132Z,5.03
2022-12-23T13:53:55.290Z,3.00
2022-12-23T13:56:33.197Z,3.30
2022-12-23T13:59:00.668Z,6.40
2022-12-23T14:01:42.273Z,20.77
2022-12-23T14:04:37.589Z,6.87
2022-12-23T14:07:20.447Z,4.43
2022-12-23T14:09:56.904Z,5.73
2022-12-23T14:12:31.039Z,33.57
2022-12-23T14:15:36.399Z,6.53
2022-12-23T14:18:12.223Z,11.00
2022-12-23T14:20:56.646Z,15.53
2022-12-23T14:23:35.561Z,52.80
2022-12-23T14:26:17.101Z,3.53
2022-12-23T14:28:49.523Z,4.20
2022-12-23T14:31:44.984Z,5.33
2022-12-23T14:34:17.803Z,3.63
2022-12-23T14:37:21.813Z,5.63
2022-12-23T14:39:50.520Z,4.30
2022-12-23T14:42:41.099Z,3.57
2022-12-23T14:45:28.013Z,4.53
2022-12-23T14:47:54.702Z,2.50
2022-12-23T14:50:39.687Z,4.47
2022-12-23T14:53:26.285Z,2.53
2022-12-23T14:56:14.826Z,3.00
2022-12-23T14:58:51.592Z,3.10
2022-12-23T15:01:27.531Z,5.93
2022-12-23T15:04:01.190Z,3.50
2022-12-23T15:06:52.906Z,3.60
2022-12-23T15:09:28.958Z,2.87
2022-12-23T15:12:07.895Z,2.30
2022-12-23T15:14:54.249Z,3.33
2022-12-23T15:17:26.008Z,2.80
2022-12-23T15:19:53.524Z,2.77
2022-12-23T15:22:26.833Z,3.20
2022-12-23T15:24:56.978Z,3.20
2022-12-23T15:27:28.750Z,6.53
2022-12-23T15:29:57.096Z,7.20
2022-12-23T15:32:25.503Z,10.43
2022-12-23T15:34:56.659Z,14.73
2022-12-23T15:37:29.900Z,13.73
2022-12-23T15:40:06.248Z,2.97
2022-12-23T15:42:47.179Z,15.70
2022-12-23T15:45:23.058Z,11.60
2022-12-23T15:47:50.796Z,7.73
2022-12-23T15:50:18.852Z,6.43
2022-12-23T15:52:48.774Z,9.87
2022-12-23T15:55:27.886Z,13.33
2022-12-23T15:57:57.028Z,10.37
2022-12-23T16:00:31.980Z,7.17
2022-12-23T16:03:04.088Z,9.67
2022-12-23T16:05:38.239Z,7.37
2022-12-23T16:08:31.497Z,3.20
2022-12-23T16:11:20.011Z,7.60
2022-12-23T16:14:02.216Z,4.50
2022-12-23T16:16:50.942Z,3.67
2022-12-23T16:19:39.656Z,5.67
2022-12-23T16:22:19.014Z,4.13
2022-12-23T16:25:04.543Z,3.90
2022-12-23T16:28:06.365Z,2.97
2022-12-23T16:30:38.808Z,3.53
2022-12-23T16:33:25.089Z,3.73
2022-12-23T16:35:56.699Z,1.77
2022-12-23T16:38:25.570Z,3.10
2022-12-23T16:41:00.815Z,3.20
2022-12-23T16:43:29.391Z,3.23
2022-12-23T16:45:57.130Z,2.13
2022-12-23T16:48:30.411Z,1.93
2022-12-23T16:50:58.112Z,2.43
2022-12-23T16:53:25.035Z,2.00
2022-12-23T16:55:56.883Z,2.80
2022-12-23T16:58:30.105Z,3.67
2022-12-23T17:01:04.628Z,3.97
2022-12-23T17:03:40.819Z,2.20
2022-12-23T17:06:17.168Z,2.23
2022-12-23T17:08:49.789Z,3.13
2022-12-23T17:11:25.318Z,1.83
2022-12-23T17:14:04.689Z,2.50
2022-12-23T17:16:36.250Z,6.90
2022-12-23T17:19:06.030Z,7.53
2022-12-23T17:21:39.833Z,10.57
2022-12-23T17:24:20.346Z,7.20
2022-12-23T17:26:48.530Z,7.43
2022-12-23T17:29:25.068Z,5.23
2022-12-23T17:31:53.250Z,10.27
2022-12-23T17:34:22.831Z,6.60
2022-12-23T17:36:52.818Z,5.67
2022-12-23T17:39:21.672Z,5.97
2022-12-23T17:41:53.160Z,9.20
2022-12-23T17:44:21.399Z,5.70
2022-12-23T17:46:50.503Z,6.93
2022-12-23T17:49:24.977Z,16.77
2022-12-23T17:51:56.216Z,20.83
2022-12-23T17:54:26.445Z,7.70
2022-12-23T17:57:02.669Z,5.40
2022-12-23T17:59:31.700Z,6.17
2022-12-23T18:02:00.022Z,4.07
2022-12-23T18:04:29.013Z,5.67
2022-12-23T18:06:56.975Z,4.50
2022-12-23T18:09:28.105Z,5.53
2022-12-23T18:11:56.798Z,3.93
2022-12-23T18:14:31.899Z,5.50
2022-12-23T18:17:05.749Z,10.47
2022-12-23T18:19:33.101Z,6.80
2022-12-23T18:22:01.308Z,7.80
2022-12-23T18:24:28.669Z,9.87
2022-12-23T18:26:57.497Z,8.23
2022-12-23T18:29:27.106Z,12.87
2022-12-23T18:31:55.218Z,18.03
2022-12-23T18:34:24.320Z,18.07
2022-12-23T18:36:54.106Z,26.57
2022-12-23T18:39:26.796Z,25.40
2022-12-23T18:41:54.244Z,16.97
2022-12-23T18:44:21.771Z,12.23
2022-12-23T18:46:57.167Z,8.63
2022-12-23T18:49:28.273Z,10.47
2022-12-23T18:51:55.469Z,6.30
2022-12-23T18:54:23.930Z,7.37
2022-12-23T18:56:54.268Z,11.90
2022-12-23T18:59:29.938Z,20.37
2022-12-23T19:02:02.051Z,23.53
2022-12-23T19:04:32.057Z,21.13
2022-12-23T19:07:08.878Z,15.17
2022-12-23T19:09:53.020Z,20.63
2022-12-23T19:12:20.515Z,13.73
2022-12-23T19:14:52.906Z,21.80
2022-12-23T19:17:23.549Z,15.40
2022-12-23T19:19:54.021Z,11.97
2022-12-23T19:22:24.567Z,13.43
2022-12-23T19:25:04.426Z,17.03
2022-12-23T19:27:33.348Z,13.43
2022-12-23T19:30:02.215Z,18.20
2022-12-23T19:32:34.813Z,17.33
2022-12-23T19:35:02.129Z,11.63
2022-12-23T19:37:32.166Z,9.60
2022-12-23T19:39:59.603Z,5.57
2022-12-23T19:42:27.883Z,9.57
2022-12-23T19:44:54.506Z,9.80
2022-12-23T19:47:21.208Z,9.03
2022-12-23T19:49:47.793Z,8.07
2022-12-23T19:52:14.838Z,8.53
2022-12-23T19:54:41.718Z,6.90
2022-12-23T19:57:08.671Z,5.60
2022-12-23T19:59:35.671Z,5.00
2022-12-23T20:02:02.699Z,6.63
2022-12-23T20:04:29.783Z,12.53
2022-12-23T20:06:57.534Z,21.63
2022-12-23T20:09:27.231Z,18.37
2022-12-23T20:11:53.820Z,11.07
2022-12-23T20:14:21.637Z,9.23
2022-12-23T20:16:49.677Z,6.67
2022-12-23T20:19:18.044Z,8.83
2022-12-23T20:21:48.612Z,11.73
2022-12-23T20:24:16.807Z,7.90
2022-12-23T20:26:44.309Z,7.23
2022-12-23T20:29:15.305Z,5.77
2022-12-23T20:31:42.130Z,7.33
2022-12-23T20:34:16.387Z,8.93
2022-12-23T20:36:47.492Z,9.43
2022-12-23T20:39:15.505Z,7.27
2022-12-23T20:41:43.540Z,7.87
2022-12-23T20:47:05.576Z,8.03
2022-12-23T20:49:35.733Z,6.60
2022-12-23T20:52:05.172Z,6.57
2022-12-23T20:54:34.148Z,8.10
2022-12-23T20:57:04.090Z,7.30
2022-12-23T20:59:31.630Z,9.40
2022-12-23T21:01:59.380Z,7.63
2022-12-23T21:04:27.316Z,9.07
2022-12-23T21:06:55.331Z,11.40
2022-12-23T21:09:23.787Z,11.53
2022-12-23T21:11:52.305Z,7.43
2022-12-23T21:14:19.463Z,8.43
2022-12-23T21:16:47.165Z,7.63
2022-12-23T21:19:17.945Z,12.80
2022-12-23T21:21:48.664Z,11.23
2022-12-23T21:24:16.924Z,8.33
2022-12-23T21:26:55.713Z,8.57
2022-12-23T21:29:23.460Z,10.83
2022-12-23T21:31:51.554Z,18.00
2022-12-23T21:34:19.677Z,10.37
2022-12-23T21:36:48.521Z,11.80
2022-12-23T21:39:26.032Z,9.93
2022-12-23T21:41:53.589Z,11.03
2022-12-23T21:44:22.070Z,15.60
2022-12-23T21:46:52.685Z,11.30
2022-12-23T21:49:21.553Z,10.97
2022-12-23T21:51:51.380Z,12.00
2022-12-23T21:54:19.269Z,14.80
2022-12-23T21:56:52.629Z,16.77
2022-12-23T21:59:21.022Z,17.27
2022-12-23T22:01:50.213Z,13.50
2022-12-23T22:04:19.212Z,13.67
2022-12-23T22:06:56.058Z,12.83
2022-12-23T22:09:26.397Z,16.43
2022-12-23T22:11:53.052Z,9.40
2022-12-23T22:14:19.766Z,9.77
2022-12-23T22:16:46.921Z,9.33
2022-12-23T22:19:14.576Z,12.77
2022-12-23T22:21:42.529Z,10.77
2022-12-23T22:24:09.675Z,12.73
2022-12-23T22:26:36.435Z,13.57
2022-12-23T22:29:05.348Z,26.30
2022-12-23T22:31:48.860Z,16.17
2022-12-23T22:34:18.382Z,21.03
2022-12-23T22:36:45.538Z,18.27
2022-12-23T22:39:20.677Z,11.23
2022-12-23T22:41:49.212Z,15.83
2022-12-23T22:44:16.423Z,16.53
2022-12-23T22:46:43.294Z,19.80
2022-12-23T22:49:14.604Z,21.93
2022-12-23T22:51:42.193Z,13.83
2022-12-23T22:54:09.126Z,10.17
2022-12-23T22:56:35.874Z,15.37
2022-12-23T22:59:03.006Z,16.77
2022-12-23T23:01:32.284Z,25.13
2022-12-23T23:04:01.417Z,23.27
2022-12-23T23:06:33.887Z,15.83
2022-12-23T23:09:00.997Z,16.57
2022-12-23T23:11:28.596Z,15.13
2022-12-23T23:13:55.990Z,13.00
2022-12-23T23:16:26.062Z,13.53
2022-12-23T23:18:53.604Z,8.53
2022-12-23T23:21:21.266Z,13.80
2022-12-23T23:23:48.211Z,11.77
2022-12-23T23:26:15.179Z,14.43
2022-12-23T23:28:42.743Z,15.97
2022-12-23T23:31:40.497Z,11.57
2022-12-23T23:33:57.667Z,8.90
2022-12-23T23:36:24.499Z,12.10
2022-12-23T23:38:51.257Z,14.63
2022-12-23T23:41:22.956Z,10.13
2022-12-23T23:43:50.161Z,10.47
2022-12-23T23:46:16.931Z,6.30
2022-12-23T23:48:43.813Z,12.63
2022-12-23T23:51:10.700Z,10.90
2022-12-23T23:53:37.279Z,12.50
2022-12-23T23:56:06.705Z,10.27
2022-12-23T23:58:34.304Z,9.37
